West Yellowstone, Montana
Current Conditions -  °F | °C
As of 11:15 PM on Saturday 25 Oct 2014 (Local Time) from KWYS Reporting Station
Overcast Overcast  
Wind Chill: 38°   Ceiling: 7500
Heat Index: 43°   Visibility: 10mi
Dew Point: 39°   Wind: 8mph
Humidity: 87%   Direction: 220°SW
Pressure: 29.89"   Gusts: NA
Location:  44.66°N, 111.1°W
Report Text: KWYS 260515Z AUTO 22007KT 10SM SCT046 BKN075 OVC100 06/04 A2989 RMK AO2
Loading
Personal Weather Stations






























Interactive Weather Map
Tropical Storm Tracking
New forecast layout! Learn more

10-Day Weather Forecast

Advertisements
Track Severe Weather on mobile